createdAt,value
2023-01-09T00:00:47.820Z,75.37
2023-01-09T00:03:14.643Z,75.71
2023-01-09T00:05:41.323Z,75.97
2023-01-09T00:08:08.173Z,75.77
2023-01-09T00:10:35.337Z,75.83
2023-01-09T00:13:02.075Z,75.88
2023-01-09T00:15:28.826Z,75.73
2023-01-09T00:17:55.459Z,75.80
2023-01-09T00:20:22.194Z,76.05
2023-01-09T00:22:48.846Z,75.96
2023-01-09T00:25:15.543Z,76.29
2023-01-09T00:27:42.365Z,76.72
2023-01-09T00:30:10.332Z,76.14
2023-01-09T00:32:36.970Z,76.10
2023-01-09T00:35:04.006Z,75.76
2023-01-09T00:37:30.677Z,75.72
2023-01-09T00:39:57.420Z,75.86
2023-01-09T00:42:30.737Z,76.31
2023-01-09T00:45:01.905Z,76.56
2023-01-09T00:47:35.924Z,75.95
2023-01-09T00:50:09.455Z,76.20
2023-01-09T00:52:38.255Z,76.50
2023-01-09T00:55:05.972Z,76.80
2023-01-09T00:57:33.167Z,76.56
2023-01-09T01:00:00.582Z,76.45
2023-01-09T01:02:27.275Z,76.81
2023-01-09T01:05:13.243Z,76.99
2023-01-09T01:07:40.136Z,77.05
2023-01-09T01:10:12.995Z,77.03
2023-01-09T01:12:40.402Z,76.58
2023-01-09T01:15:08.535Z,76.76
2023-01-09T01:17:37.463Z,76.84
2023-01-09T01:20:06.657Z,77.00
2023-01-09T01:22:33.399Z,77.18
2023-01-09T01:25:00.123Z,77.23
2023-01-09T01:27:28.785Z,77.08
2023-01-09T01:29:55.971Z,77.16
2023-01-09T01:32:22.853Z,77.76
2023-01-09T01:34:49.628Z,77.50
2023-01-09T01:37:16.296Z,78.00
2023-01-09T01:39:43.023Z,77.78
2023-01-09T01:42:12.956Z,77.72
2023-01-09T01:45:07.911Z,78.08
2023-01-09T01:47:45.078Z,78.24
2023-01-09T01:50:35.431Z,78.63
2023-01-09T01:53:08.348Z,78.62
2023-01-09T01:55:43.728Z,79.16
2023-01-09T01:58:14.422Z,78.50
2023-01-09T02:00:45.023Z,78.77
2023-01-09T02:03:15.382Z,78.98
2023-01-09T02:05:42.093Z,78.76
2023-01-09T02:08:09.276Z,78.85
2023-01-09T02:10:38.206Z,78.65
2023-01-09T02:13:06.362Z,79.27
2023-01-09T02:15:57.072Z,78.99
2023-01-09T02:18:38.936Z,78.85
2023-01-09T02:21:29.773Z,79.03
2023-01-09T02:24:09.883Z,79.33
2023-01-09T02:27:01.851Z,79.24
2023-01-09T02:29:40.658Z,79.51
2023-01-09T02:32:36.922Z,79.14
2023-01-09T02:35:16.823Z,79.20
2023-01-09T02:37:55.159Z,79.57
2023-01-09T02:40:33.664Z,79.69
2023-01-09T02:43:01.654Z,79.70
2023-01-09T02:45:28.365Z,79.62
2023-01-09T02:47:55.047Z,79.97
2023-01-09T02:50:27.877Z,79.68
2023-01-09T02:53:22.210Z,79.84
2023-01-09T02:56:03.912Z,79.84
2023-01-09T02:59:09.035Z,79.68
2023-01-09T03:01:57.197Z,79.72
2023-01-09T03:04:39.575Z,80.19
2023-01-09T03:07:33.301Z,80.06
2023-01-09T03:10:19.530Z,80.26
2023-01-09T03:12:49.075Z,79.92
2023-01-09T03:15:18.515Z,80.02
2023-01-09T03:17:48.543Z,80.14
2023-01-09T03:20:21.309Z,79.87
2023-01-09T03:22:59.783Z,80.47
2023-01-09T03:25:28.449Z,80.40
2023-01-09T03:28:01.585Z,80.12
2023-01-09T03:30:30.349Z,80.47
2023-01-09T03:32:57.565Z,80.50
2023-01-09T03:35:24.338Z,80.18
2023-01-09T03:37:51.925Z,80.49
2023-01-09T03:40:19.547Z,80.52
2023-01-09T03:42:46.911Z,80.69
2023-01-09T03:45:14.091Z,80.77
2023-01-09T03:47:40.771Z,80.46
2023-01-09T03:50:08.142Z,80.72
2023-01-09T03:52:36.092Z,80.84
2023-01-09T03:55:02.954Z,80.92
2023-01-09T03:57:29.839Z,80.66
2023-01-09T03:59:56.594Z,81.15
2023-01-09T04:02:23.332Z,80.99
2023-01-09T04:04:49.945Z,81.11
2023-01-09T04:07:16.867Z,80.62
2023-01-09T04:09:43.506Z,81.21
2023-01-09T04:12:10.224Z,81.20
2023-01-09T04:14:36.937Z,80.99
2023-01-09T04:17:03.604Z,81.31
2023-01-09T04:19:30.247Z,80.80
2023-01-09T04:21:56.986Z,81.08
2023-01-09T04:24:23.576Z,81.45
2023-01-09T04:26:50.313Z,81.25
2023-01-09T04:29:16.916Z,80.97
2023-01-09T04:31:44.004Z,81.27
2023-01-09T04:34:10.687Z,81.03
2023-01-09T04:36:37.404Z,81.23
2023-01-09T04:39:04.175Z,81.38
2023-01-09T04:41:49.077Z,81.56
2023-01-09T04:44:26.385Z,81.55
2023-01-09T04:46:54.639Z,81.26
2023-01-09T04:49:22.264Z,81.63
2023-01-09T04:51:49.199Z,81.38
2023-01-09T04:54:16.119Z,81.44
2023-01-09T04:56:42.958Z,81.65
2023-01-09T04:59:09.750Z,81.38
2023-01-09T05:01:36.668Z,81.84
2023-01-09T05:04:03.977Z,81.87
2023-01-09T05:06:31.436Z,82.02
2023-01-09T05:08:58.441Z,81.72
2023-01-09T05:11:25.679Z,81.87
2023-01-09T05:13:53.343Z,82.14
2023-01-09T05:16:21.296Z,81.66
2023-01-09T05:18:48.323Z,82.21
2023-01-09T05:21:15.017Z,82.11
2023-01-09T05:23:41.797Z,82.17
2023-01-09T05:26:08.479Z,81.93
2023-01-09T05:28:35.149Z,81.77
2023-01-09T05:31:01.875Z,81.75
2023-01-09T05:33:28.561Z,82.08
2023-01-09T05:35:55.258Z,81.66
2023-01-09T05:38:22.081Z,81.97
2023-01-09T05:40:48.826Z,81.60
2023-01-09T05:43:15.564Z,82.09
2023-01-09T05:45:43.384Z,81.99
2023-01-09T05:48:10.203Z,81.86
2023-01-09T05:50:36.830Z,81.76
2023-01-09T05:53:03.765Z,82.11
2023-01-09T05:55:30.478Z,81.94
2023-01-09T05:57:57.084Z,81.95
2023-01-09T06:00:23.958Z,82.17
2023-01-09T06:02:50.693Z,81.77
2023-01-09T06:05:17.541Z,81.91
2023-01-09T06:07:44.364Z,81.82
2023-01-09T06:10:13.451Z,82.17
2023-01-09T06:12:40.513Z,82.16
2023-01-09T06:15:09.057Z,81.76
2023-01-09T06:17:36.024Z,82.09
2023-01-09T06:20:02.935Z,81.71
2023-01-09T06:22:29.724Z,81.73
2023-01-09T06:24:56.416Z,81.82
2023-01-09T06:27:23.079Z,82.27
2023-01-09T06:29:49.795Z,81.99
2023-01-09T06:32:16.608Z,81.82
2023-01-09T06:34:43.353Z,81.77
2023-01-09T06:37:10.565Z,82.04
2023-01-09T06:39:37.263Z,81.80
2023-01-09T06:42:04.110Z,82.02
2023-01-09T06:44:30.970Z,81.60
2023-01-09T06:46:57.766Z,82.09
2023-01-09T06:49:24.964Z,81.96
2023-01-09T06:51:51.802Z,81.49
2023-01-09T06:54:19.389Z,81.81
2023-01-09T06:56:46.077Z,81.74
2023-01-09T06:59:13.247Z,81.45
2023-01-09T07:01:40.227Z,81.89
2023-01-09T07:04:08.148Z,81.54
2023-01-09T07:06:35.160Z,81.69
2023-01-09T07:09:01.921Z,81.63
2023-01-09T07:11:28.558Z,81.80
2023-01-09T07:13:55.360Z,82.00
2023-01-09T07:16:22.088Z,82.10
2023-01-09T07:18:48.821Z,81.59
2023-01-09T07:21:15.620Z,81.84
2023-01-09T07:23:42.397Z,81.63
2023-01-09T07:26:09.537Z,81.49
2023-01-09T07:28:36.417Z,81.78
2023-01-09T07:31:04.725Z,81.69
2023-01-09T07:33:31.469Z,81.88
2023-01-09T07:35:58.164Z,81.69
2023-01-09T07:38:24.966Z,81.60
2023-01-09T07:40:51.916Z,81.34
2023-01-09T07:43:18.772Z,81.45
2023-01-09T07:45:46.902Z,81.65
2023-01-09T07:48:13.711Z,81.65
2023-01-09T07:50:40.534Z,81.38
2023-01-09T07:53:07.360Z,81.76
2023-01-09T07:55:34.060Z,81.46
2023-01-09T07:58:00.922Z,81.43
2023-01-09T08:00:27.644Z,81.38
2023-01-09T08:02:55.042Z,81.33
2023-01-09T08:05:22.044Z,81.89
2023-01-09T08:07:50.854Z,81.38
2023-01-09T08:10:19.948Z,81.92
2023-01-09T08:12:47.642Z,81.95
2023-01-09T08:15:15.250Z,81.77
2023-01-09T08:17:43.479Z,81.31
2023-01-09T08:20:12.460Z,81.58
2023-01-09T08:22:41.977Z,81.71
2023-01-09T08:25:12.085Z,81.62
2023-01-09T08:27:39.369Z,81.35
2023-01-09T08:30:06.832Z,81.31
2023-01-09T08:32:33.459Z,81.24
2023-01-09T08:35:00.299Z,81.41
2023-01-09T08:37:27.095Z,81.04
2023-01-09T08:39:53.858Z,81.07
2023-01-09T08:42:39.800Z,81.27
2023-01-09T08:45:25.658Z,81.13
2023-01-09T08:47:52.638Z,81.30
2023-01-09T08:50:19.701Z,80.89
2023-01-09T08:52:46.732Z,81.49
2023-01-09T08:55:13.469Z,81.53
2023-01-09T08:57:49.302Z,81.36
2023-01-09T09:00:17.452Z,81.02
2023-01-09T09:02:44.446Z,80.85
2023-01-09T09:05:11.629Z,80.82
2023-01-09T09:07:38.354Z,80.87
2023-01-09T09:10:05.510Z,80.63
2023-01-09T09:12:32.275Z,81.08
2023-01-09T09:15:15.793Z,80.84
2023-01-09T09:17:44.558Z,80.80
2023-01-09T09:20:12.019Z,81.05
2023-01-09T09:22:39.274Z,80.87
2023-01-09T09:25:06.293Z,80.93
2023-01-09T09:27:33.401Z,80.83
2023-01-09T09:30:00.299Z,80.55
2023-01-09T09:32:27.116Z,80.75
2023-01-09T09:34:53.725Z,80.86
2023-01-09T09:37:20.450Z,80.63
2023-01-09T09:39:47.301Z,80.64
2023-01-09T09:43:13.550Z,80.94
2023-01-09T09:45:56.007Z,80.56
2023-01-09T09:48:45.689Z,80.49
2023-01-09T09:51:40.209Z,80.46
2023-01-09T09:54:21.864Z,80.70
2023-01-09T09:56:53.021Z,80.84
2023-01-09T09:59:24.122Z,80.55
2023-01-09T10:02:00.861Z,80.58
2023-01-09T10:04:32.195Z,80.25
2023-01-09T10:07:11.175Z,80.86
2023-01-09T10:09:46.107Z,80.42
2023-01-09T10:12:19.517Z,80.73
2023-01-09T10:14:46.303Z,80.70
2023-01-09T10:17:45.271Z,80.92
2023-01-09T10:20:23.890Z,80.26
2023-01-09T10:23:39.736Z,80.67
2023-01-09T10:26:21.159Z,80.35
2023-01-09T10:28:50.692Z,80.63
2023-01-09T10:31:22.266Z,80.41
2023-01-09T10:34:16.816Z,80.39
2023-01-09T10:36:55.839Z,80.26
2023-01-09T10:39:44.799Z,80.18
2023-01-09T10:42:20.452Z,80.43
2023-01-09T10:44:53.676Z,80.69
2023-01-09T10:47:31.772Z,80.61
2023-01-09T10:49:59.313Z,80.20
2023-01-09T10:52:36.223Z,80.53
2023-01-09T10:55:14.463Z,80.19
2023-01-09T10:57:47.696Z,80.40
2023-01-09T11:00:18.007Z,80.24
2023-01-09T11:02:45.369Z,80.13
2023-01-09T11:05:21.141Z,80.50
2023-01-09T11:07:53.545Z,80.43
2023-01-09T11:10:22.780Z,80.33
2023-01-09T11:12:49.565Z,80.16
2023-01-09T11:15:29.162Z,80.25
2023-01-09T11:18:16.095Z,80.05
2023-01-09T11:20:43.076Z,80.36
2023-01-09T11:23:33.063Z,79.93
2023-01-09T11:26:02.271Z,80.09
2023-01-09T11:28:29.699Z,80.13
2023-01-09T11:31:02.558Z,79.88
2023-01-09T11:33:37.888Z,80.13
2023-01-09T11:36:14.935Z,79.96
2023-01-09T11:38:52.537Z,80.05
2023-01-09T11:41:23.318Z,80.12
2023-01-09T11:43:53.536Z,80.12
2023-01-09T11:46:31.075Z,79.99
2023-01-09T11:48:59.515Z,80.36
2023-01-09T11:51:31.686Z,80.05
2023-01-09T11:54:00.638Z,80.21
2023-01-09T11:56:27.745Z,80.68
2023-01-09T11:58:54.679Z,80.05
2023-01-09T12:01:39.296Z,80.19
2023-01-09T12:04:20.451Z,80.58
2023-01-09T12:07:34.032Z,80.43
2023-01-09T12:10:09.807Z,80.14
2023-01-09T12:12:54.856Z,79.91
2023-01-09T12:15:33.899Z,80.03
2023-01-09T12:18:12.524Z,80.11
2023-01-09T12:21:18.146Z,79.82
2023-01-09T12:24:09.833Z,79.96
2023-01-09T12:26:50.105Z,79.77
2023-01-09T12:29:44.443Z,79.86
2023-01-09T12:32:17.227Z,79.85
2023-01-09T12:35:22.361Z,80.18
2023-01-09T12:38:14.268Z,80.01
2023-01-09T12:41:13.691Z,79.63
2023-01-09T12:44:09.660Z,79.88
2023-01-09T12:46:47.837Z,80.25
2023-01-09T12:49:44.411Z,80.06
2023-01-09T12:52:24.036Z,79.67
2023-01-09T12:54:59.876Z,79.80
2023-01-09T12:57:31.764Z,79.74
2023-01-09T13:00:03.296Z,79.57
2023-01-09T13:02:45.222Z,79.68
2023-01-09T13:05:34.174Z,79.54
2023-01-09T13:08:05.904Z,79.98
2023-01-09T13:10:42.309Z,79.71
2023-01-09T13:13:19.927Z,80.01
2023-01-09T13:15:53.160Z,79.84
2023-01-09T13:18:27.449Z,79.35
2023-01-09T13:20:58.500Z,79.56
2023-01-09T13:23:40.457Z,79.16
2023-01-09T13:26:14.531Z,79.47
2023-01-09T13:28:49.152Z,79.13
2023-01-09T13:31:19.449Z,79.22
2023-01-09T13:33:53.011Z,78.96
2023-01-09T13:36:29.479Z,79.15
2023-01-09T13:39:01.067Z,79.40
2023-01-09T13:41:48.334Z,79.02
2023-01-09T13:44:18.242Z,78.93
2023-01-09T13:47:05.487Z,79.00
2023-01-09T13:49:41.320Z,79.22
2023-01-09T13:52:37.090Z,79.11
2023-01-09T13:55:04.021Z,79.30
2023-01-09T13:57:36.370Z,79.16
2023-01-09T14:00:15.483Z,78.79
2023-01-09T14:02:44.718Z,78.80
2023-01-09T14:05:14.204Z,78.98
2023-01-09T14:07:48.981Z,78.96
2023-01-09T14:10:27.505Z,79.07
2023-01-09T14:12:57.230Z,79.06
2023-01-09T14:15:32.789Z,79.17
2023-01-09T14:18:06.762Z,79.11
2023-01-09T14:20:39.794Z,79.19
2023-01-09T14:23:31.454Z,78.77
2023-01-09T14:25:55.671Z,79.17
2023-01-09T14:28:27.544Z,79.22
2023-01-09T14:30:54.163Z,78.97
2023-01-09T14:33:21.816Z,79.28
2023-01-09T14:36:10.269Z,79.10
2023-01-09T14:38:44.784Z,79.10
2023-01-09T14:41:58.187Z,79.12
2023-01-09T14:44:40.908Z,78.83
2023-01-09T14:47:37.456Z,78.71
2023-01-09T14:50:25.563Z,78.79
2023-01-09T14:52:59.852Z,79.04
2023-01-09T14:55:53.172Z,79.00
2023-01-09T14:58:32.107Z,78.85
2023-01-09T15:01:04.326Z,79.16
2023-01-09T15:03:45.773Z,79.26
2023-01-09T15:06:18.554Z,79.21
2023-01-09T15:08:48.026Z,79.11
2023-01-09T15:11:14.918Z,78.98
2023-01-09T15:13:46.255Z,78.85
2023-01-09T15:16:19.545Z,79.44
2023-01-09T15:18:52.814Z,79.52
2023-01-09T15:21:23.647Z,78.96
2023-01-09T15:23:50.714Z,78.93
2023-01-09T15:26:29.252Z,79.20
2023-01-09T15:29:13.125Z,79.48
2023-01-09T15:31:43.451Z,79.58
2023-01-09T15:34:17.721Z,79.11
2023-01-09T15:36:45.127Z,79.23
2023-01-09T15:39:19.942Z,79.11
2023-01-09T15:42:05.862Z,79.32
2023-01-09T15:44:36.408Z,79.72
2023-01-09T15:47:06.628Z,79.38
2023-01-09T15:49:34.124Z,79.47
2023-01-09T15:52:02.240Z,79.42
2023-01-09T15:54:31.197Z,79.55
2023-01-09T15:57:25.954Z,79.13
2023-01-09T15:59:57.850Z,79.59
2023-01-09T16:02:44.361Z,79.44
2023-01-09T16:05:16.265Z,79.55
2023-01-09T16:07:47.676Z,79.22
2023-01-09T16:10:30.513Z,79.14
2023-01-09T16:12:57.787Z,79.31
2023-01-09T16:15:25.485Z,79.29
2023-01-09T16:18:29.282Z,78.92
2023-01-09T16:21:31.226Z,79.30
2023-01-09T16:24:01.075Z,79.56
2023-01-09T16:26:29.887Z,79.25
2023-01-09T16:28:57.079Z,79.26
2023-01-09T16:31:30.147Z,79.46
2023-01-09T16:34:06.367Z,79.07
2023-01-09T16:36:36.763Z,79.46
2023-01-09T16:39:06.653Z,79.17
2023-01-09T16:41:52.562Z,79.11
2023-01-09T16:44:19.475Z,79.29
2023-01-09T16:46:46.575Z,79.80
2023-01-09T16:49:19.476Z,79.56
2023-01-09T16:51:47.405Z,79.68
2023-01-09T16:54:14.839Z,79.29
2023-01-09T16:56:44.189Z,79.28
2023-01-09T16:59:29.411Z,79.80
2023-01-09T17:01:56.407Z,79.50
2023-01-09T17:04:26.161Z,79.53
2023-01-09T17:06:52.836Z,80.14
2023-01-09T17:09:23.666Z,79.86
2023-01-09T17:11:51.953Z,79.84
2023-01-09T17:14:18.560Z,80.03
2023-01-09T17:16:48.224Z,79.81
2023-01-09T17:19:20.366Z,79.95
2023-01-09T17:21:47.157Z,80.01
2023-01-09T17:24:34.905Z,80.39
2023-01-09T17:27:31.828Z,79.98
2023-01-09T17:29:59.452Z,79.91
2023-01-09T17:32:27.743Z,80.08
2023-01-09T17:34:54.757Z,80.24
2023-01-09T17:37:21.796Z,80.52
2023-01-09T17:39:48.951Z,80.58
2023-01-09T17:42:15.631Z,79.98
2023-01-09T17:44:42.594Z,80.31
2023-01-09T17:47:15.838Z,80.42
2023-01-09T17:49:43.036Z,80.57
2023-01-09T17:52:09.995Z,80.64
2023-01-09T17:54:36.914Z,80.46
2023-01-09T17:57:03.643Z,80.83
2023-01-09T17:59:30.978Z,80.46
2023-01-09T18:01:57.927Z,80.70
2023-01-09T18:04:24.715Z,80.85
2023-01-09T18:06:51.526Z,80.80
2023-01-09T18:09:18.496Z,80.51
2023-01-09T18:11:45.277Z,80.83
2023-01-09T18:14:13.777Z,80.39
2023-01-09T18:16:40.849Z,80.36
2023-01-09T18:19:07.593Z,80.76
2023-01-09T18:21:34.482Z,80.64
2023-01-09T18:24:02.302Z,80.73
2023-01-09T18:26:29.039Z,80.65
2023-01-09T18:28:58.597Z,80.93
2023-01-09T18:31:27.470Z,80.82
2023-01-09T18:33:56.596Z,80.93
2023-01-09T18:36:29.848Z,80.96
2023-01-09T18:38:58.964Z,80.86
2023-01-09T18:41:26.649Z,80.99
2023-01-09T18:43:56.250Z,80.61
2023-01-09T18:46:26.245Z,80.82
2023-01-09T18:48:54.537Z,80.85
2023-01-09T18:51:22.818Z,80.42
2023-01-09T18:53:50.658Z,80.73
2023-01-09T18:56:19.845Z,80.50
2023-01-09T18:58:47.868Z,80.48
2023-01-09T19:01:15.918Z,80.90
2023-01-09T19:03:42.740Z,80.56
2023-01-09T19:06:10.179Z,80.27
2023-01-09T19:08:37.423Z,80.28
2023-01-09T19:11:04.605Z,80.82
2023-01-09T19:13:33.448Z,80.64
2023-01-09T19:16:00.812Z,80.63
2023-01-09T19:18:29.417Z,80.63
2023-01-09T19:20:56.235Z,80.82
2023-01-09T19:23:26.196Z,80.76
2023-01-09T19:25:54.017Z,80.79
2023-01-09T19:28:21.555Z,80.79
2023-01-09T19:30:55.988Z,80.80
2023-01-09T19:33:24.747Z,80.50
2023-01-09T19:35:52.824Z,80.19
2023-01-09T19:38:22.421Z,80.39
2023-01-09T19:40:49.558Z,80.25
2023-01-09T19:43:25.925Z,80.63
2023-01-09T19:45:56.978Z,80.56
2023-01-09T19:48:27.108Z,80.43
2023-01-09T19:51:07.776Z,80.80
2023-01-09T19:53:35.057Z,80.55
2023-01-09T19:56:14.379Z,80.91
2023-01-09T19:58:42.919Z,80.54
2023-01-09T20:01:14.398Z,80.88
2023-01-09T20:03:43.403Z,80.70
2023-01-09T20:06:17.470Z,80.55
2023-01-09T20:08:47.575Z,80.42
2023-01-09T20:11:15.817Z,80.63
2023-01-09T20:13:43.181Z,80.37
2023-01-09T20:16:20.263Z,80.92
2023-01-09T20:18:48.174Z,80.60
2023-01-09T20:23:51.326Z,80.82
2023-01-09T20:26:18.746Z,80.98
2023-01-09T20:28:45.775Z,80.54
2023-01-09T20:31:16.277Z,80.70
2023-01-09T20:33:43.412Z,80.81
2023-01-09T20:36:10.718Z,80.91
2023-01-09T20:38:39.273Z,81.05
2023-01-09T20:41:08.381Z,80.90
2023-01-09T20:43:36.203Z,80.89
2023-01-09T20:46:07.433Z,81.26
2023-01-09T20:48:34.189Z,81.14
2023-01-09T20:51:08.172Z,80.88
2023-01-09T20:53:34.911Z,81.17
2023-01-09T20:56:03.614Z,80.80
2023-01-09T20:58:30.693Z,80.63
2023-01-09T21:00:57.524Z,80.84
2023-01-09T21:03:24.228Z,80.72
2023-01-09T21:05:51.207Z,80.85
2023-01-09T21:08:18.145Z,81.24
2023-01-09T21:10:44.969Z,81.16
2023-01-09T21:13:11.847Z,81.01
2023-01-09T21:15:39.045Z,81.12
2023-01-09T21:18:06.316Z,80.99
2023-01-09T21:20:33.283Z,80.66
2023-01-09T21:23:00.025Z,80.80
2023-01-09T21:25:26.752Z,80.87
2023-01-09T21:27:53.702Z,80.33
2023-01-09T21:30:21.662Z,80.84
2023-01-09T21:32:48.351Z,80.84
2023-01-09T21:35:16.224Z,80.50
2023-01-09T21:37:43.003Z,80.32
2023-01-09T21:40:17.561Z,80.53
2023-01-09T21:43:03.602Z,80.75
2023-01-09T21:45:49.009Z,80.55
2023-01-09T21:48:15.841Z,80.56
2023-01-09T21:50:42.822Z,80.63
2023-01-09T21:53:09.688Z,80.70
2023-01-09T21:55:36.511Z,80.73
2023-01-09T21:58:04.120Z,80.67
2023-01-09T22:00:31.069Z,80.78
2023-01-09T22:02:59.035Z,80.57
2023-01-09T22:05:27.188Z,80.84
2023-01-09T22:07:56.764Z,80.93
2023-01-09T22:10:23.515Z,80.48
2023-01-09T22:13:10.498Z,81.05
2023-01-09T22:15:37.403Z,80.54
2023-01-09T22:18:04.321Z,80.94
2023-01-09T22:20:31.832Z,80.82
2023-01-09T22:22:58.783Z,80.85
2023-01-09T22:25:25.511Z,80.72
2023-01-09T22:27:52.376Z,81.11
2023-01-09T22:30:19.199Z,81.06
2023-01-09T22:32:45.855Z,81.46
2023-01-09T22:35:12.572Z,80.97
2023-01-09T22:37:39.383Z,81.07
2023-01-09T22:40:06.431Z,81.08
2023-01-09T22:42:33.124Z,81.06
2023-01-09T22:44:59.951Z,81.50
2023-01-09T22:47:26.597Z,81.54
2023-01-09T22:49:53.873Z,81.64
2023-01-09T22:52:21.449Z,81.15
2023-01-09T22:54:48.683Z,81.59
2023-01-09T22:57:15.601Z,81.30
2023-01-09T22:59:42.365Z,81.03
2023-01-09T23:02:09.153Z,81.30
2023-01-09T23:04:36.047Z,81.02
2023-01-09T23:07:02.888Z,80.87
2023-01-09T23:09:29.638Z,80.98
2023-01-09T23:12:02.458Z,81.02
2023-01-09T23:14:39.169Z,80.86
2023-01-09T23:17:07.591Z,81.01
2023-01-09T23:19:34.464Z,80.77
2023-01-09T23:22:02.334Z,80.76
2023-01-09T23:24:29.520Z,81.02
2023-01-09T23:26:57.191Z,81.07
2023-01-09T23:29:24.858Z,80.76
2023-01-09T23:31:53.697Z,80.96
2023-01-09T23:34:24.358Z,81.18
2023-01-09T23:36:51.672Z,80.76
2023-01-09T23:39:18.562Z,80.93
2023-01-09T23:42:04.103Z,80.92
2023-01-09T23:44:31.003Z,81.05
2023-01-09T23:46:57.864Z,81.06
2023-01-09T23:49:24.532Z,80.92
2023-01-09T23:51:51.415Z,80.71
2023-01-09T23:54:18.775Z,80.98
2023-01-09T23:56:45.538Z,80.80
2023-01-09T23:59:13.841Z,80.67
